Weather at Syros Airport

Public forecast

Using degrees Celsius for public forecast. Weather courtesy of forecast.io.

Current aviation weather report (METAR) for Syros Airport

Report is more than 6 hours old.

2022/11/14 15:20 (retrieved 2 years ago)

LGSO 141520Z AUTO 35018KT //// -RA ////// 15/10 Q1021 RE//

Closest aviation forecast (TAF) to Syros Airport

Forecast is more than 12 hours old.

Closest forecast is Athens Eleftherios Venizelos International Airport, 56.9 nm (105.4 km) WNW.

2023/02/22 18:12 (retrieved 1 year ago)

TAF TAF LGAV 221700Z 2218/2318 VRB05KT 9999 FEW025